Country
Station

 

Weather  for  Ninoy Aquino Inter-National Airport  -  Philippines    Philippines

  
32 °C (90 °F)
    
 
 

Current METAR for Ninoy Aquino Inter-National Airport is :

RPLL 021100Z AUTO 12006KT 080V140 9999 NCD 32/24 Q1007

 

This is a report for Ninoy Aquino Inter-National Airport - Philippines.
 
The report was made one hour and 2 minutes ago, at 11:00 UTC .
The wind was blowing at a speed of 3.1 meters per second (6.9 miles per hour) from east/southeast (120°), varying between east (080°) and southeast (140°).
 
The temperature was 32 °C (90 °F), with a dew-point at 24 °C (75 °F).
The temperature felt like 38 °C (101 °F).
 
The atmospheric pressure was 1007 hPa (29.74 inHg).
The relative humidity was 62.8%.
 
The overall visibility was greater than 10 kilometers (6.2 miles).
 

 
 
 
 

Country :   A   B   C   D   E   F   G   H   I   J   K   L   M   N   O   P   Q   R   S   T   U   V   W   Y   Z

 

Site Info  |  Disclaimer  |  Credits  |  Privacy
Contact us  |  Add to favorites
© 2013-2020 METARs - All rights reserved